createdAt,value
2019-03-03T00:00:45.346Z,73.20
2019-03-03T00:05:48.828Z,73.62
2019-03-03T00:10:52.154Z,73.40
2019-03-03T00:15:55.441Z,73.43
2019-03-03T00:20:58.814Z,73.18
2019-03-03T00:26:02.073Z,73.05
2019-03-03T00:31:05.429Z,73.75
2019-03-03T00:36:08.767Z,73.68
2019-03-03T00:42:19.283Z,74.36
2019-03-03T00:47:33.567Z,73.42
2019-03-03T00:52:57.992Z,73.71
2019-03-03T01:00:12.891Z,73.31
2019-03-03T01:05:39.181Z,73.06
2019-03-03T01:10:51.670Z,72.49
2019-03-03T01:15:59.105Z,72.78
2019-03-03T01:21:06.531Z,72.34
2019-03-03T01:26:09.838Z,72.09
2019-03-03T01:31:13.198Z,70.99
2019-03-03T01:36:16.581Z,70.91
2019-03-03T01:41:19.965Z,69.77
2019-03-03T01:46:23.219Z,69.58
2019-03-03T01:51:26.494Z,69.44
2019-03-03T01:56:29.739Z,69.17
2019-03-03T02:01:33.178Z,69.29
2019-03-03T02:06:36.416Z,69.47
2019-03-03T02:11:40.058Z,69.64
2019-03-03T02:16:44.346Z,69.37
2019-03-03T02:21:47.589Z,68.81
2019-03-03T02:26:50.860Z,69.12
2019-03-03T02:31:54.130Z,69.36
2019-03-03T02:36:57.571Z,69.30
2019-03-03T02:42:00.828Z,68.94
2019-03-03T02:47:04.071Z,68.98
2019-03-03T02:52:07.313Z,68.96
2019-03-03T02:57:10.951Z,69.35
2019-03-03T03:02:18.387Z,68.78
2019-03-03T03:07:26.759Z,68.65
2019-03-03T03:12:40.141Z,68.74
2019-03-03T03:19:50.879Z,68.13
2019-03-03T03:25:00.444Z,67.48
2019-03-03T03:30:08.958Z,67.48
2019-03-03T03:35:24.237Z,66.53
2019-03-03T03:40:32.892Z,65.08
2019-03-03T03:45:44.320Z,65.21
2019-03-03T03:50:51.755Z,63.70
2019-03-03T03:56:18.319Z,63.73
2019-03-03T04:01:26.918Z,63.81
2019-03-03T04:06:37.346Z,64.24
2019-03-03T04:11:44.905Z,62.92
2019-03-03T04:16:52.444Z,63.38
2019-03-03T04:22:09.944Z,62.94
2019-03-03T04:27:18.534Z,61.67
2019-03-03T04:32:25.985Z,61.92
2019-03-03T04:37:34.385Z,62.30
2019-03-03T04:42:43.775Z,62.49
2019-03-03T04:47:58.094Z,63.31
2019-03-03T04:53:06.670Z,62.65
2019-03-03T04:58:18.080Z,63.43
2019-03-03T05:03:25.657Z,62.64
2019-03-03T05:08:33.074Z,63.01
2019-03-03T05:13:56.238Z,63.58
2019-03-03T05:19:03.557Z,63.96
2019-03-03T05:24:06.809Z,64.59
2019-03-03T05:29:10.244Z,65.29
2019-03-03T05:34:13.577Z,65.70
2019-03-03T05:39:16.811Z,66.24
2019-03-03T05:44:20.200Z,66.23
2019-03-03T05:49:23.444Z,66.46
2019-03-03T05:54:26.707Z,66.77
2019-03-03T05:59:29.972Z,66.54
2019-03-03T06:04:33.225Z,66.77
2019-03-03T06:09:36.486Z,66.66
2019-03-03T06:14:39.738Z,66.61
2019-03-03T06:19:43.015Z,66.51
2019-03-03T06:24:46.263Z,65.93
2019-03-03T06:29:49.617Z,66.10
2019-03-03T06:34:52.863Z,65.82
2019-03-03T06:39:56.147Z,66.22
2019-03-03T06:44:59.376Z,65.89
2019-03-03T06:50:02.646Z,66.09
2019-03-03T06:55:06.098Z,65.46
2019-03-03T07:00:12.268Z,65.43
2019-03-03T07:05:15.500Z,65.08
2019-03-03T07:10:18.854Z,64.72
2019-03-03T07:15:22.089Z,64.36
2019-03-03T07:20:28.587Z,64.23
2019-03-03T07:25:31.872Z,64.51
2019-03-03T07:30:35.142Z,64.53
2019-03-03T07:35:38.384Z,64.23
2019-03-03T07:40:41.677Z,63.70
2019-03-03T07:45:44.969Z,62.80
2019-03-03T07:50:48.214Z,62.63
2019-03-03T07:55:51.465Z,62.38
2019-03-03T08:00:54.794Z,62.24
2019-03-03T08:05:58.109Z,62.44
2019-03-03T08:11:01.417Z,62.88
2019-03-03T08:16:04.719Z,62.51
2019-03-03T08:21:08.051Z,61.90
2019-03-03T08:26:11.300Z,62.01
2019-03-03T08:31:14.558Z,60.92
2019-03-03T08:36:17.897Z,59.98
2019-03-03T08:41:21.162Z,59.53
2019-03-03T08:46:29.819Z,60.76
2019-03-03T08:51:46.167Z,60.47
2019-03-03T08:56:57.540Z,60.51
2019-03-03T09:02:06.969Z,60.02
2019-03-03T09:07:16.371Z,60.12
2019-03-03T09:12:24.955Z,60.24
2019-03-03T09:17:48.247Z,60.02
2019-03-03T09:24:03.563Z,59.54
2019-03-03T09:29:44.887Z,59.05
2019-03-03T09:34:55.245Z,59.41
2019-03-03T09:40:09.340Z,58.24
2019-03-03T09:45:28.814Z,57.88
2019-03-03T09:50:37.332Z,58.09
2019-03-03T09:55:45.915Z,57.30
2019-03-03T10:00:54.341Z,56.92
2019-03-03T10:06:04.793Z,57.33
2019-03-03T10:11:14.166Z,56.79
2019-03-03T10:16:52.471Z,56.91
2019-03-03T10:22:01.935Z,56.89
2019-03-03T10:27:10.398Z,56.51
2019-03-03T10:32:19.698Z,56.15
2019-03-03T10:37:29.255Z,56.18
2019-03-03T10:42:41.630Z,56.48
2019-03-03T10:47:51.936Z,56.10
2019-03-03T10:52:59.530Z,54.81
2019-03-03T10:58:09.035Z,55.05
2019-03-03T11:03:19.574Z,56.35
2019-03-03T11:08:28.122Z,55.40
2019-03-03T11:13:39.427Z,54.81
2019-03-03T11:18:55.936Z,54.65
2019-03-03T11:23:59.396Z,54.05
2019-03-03T11:29:42.958Z,53.54
2019-03-03T11:34:55.495Z,53.39
2019-03-03T11:40:06.344Z,52.64
2019-03-03T11:45:14.743Z,53.07
2019-03-03T11:50:23.199Z,52.81
2019-03-03T11:55:31.727Z,53.57
2019-03-03T12:00:45.164Z,53.07
2019-03-03T12:06:25.074Z,52.20
2019-03-03T12:11:42.458Z,52.48
2019-03-03T12:16:53.959Z,51.97
2019-03-03T12:23:04.535Z,52.01
2019-03-03T12:28:15.058Z,52.59
2019-03-03T12:33:24.678Z,52.15
2019-03-03T12:38:35.088Z,51.71
2019-03-03T12:43:43.538Z,52.30
2019-03-03T12:48:56.125Z,50.96
2019-03-03T12:54:04.826Z,50.88
2019-03-03T13:00:15.202Z,51.08
2019-03-03T13:05:25.508Z,50.50
2019-03-03T13:10:34.124Z,51.60
2019-03-03T13:15:46.423Z,50.08
2019-03-03T13:20:57.909Z,50.50
2019-03-03T13:26:06.539Z,50.82
2019-03-03T13:31:15.251Z,49.71
2019-03-03T13:36:23.852Z,50.12
2019-03-03T13:41:33.133Z,49.22
2019-03-03T13:46:36.498Z,49.21
2019-03-03T13:51:39.805Z,49.27
2019-03-03T13:56:44.058Z,49.01
2019-03-03T14:01:47.323Z,49.18
2019-03-03T14:06:50.683Z,49.46
2019-03-03T14:11:54.032Z,48.96
2019-03-03T14:16:57.390Z,49.57
2019-03-03T14:22:00.815Z,49.54
2019-03-03T14:27:10.538Z,49.60
2019-03-03T14:32:07.596Z,49.40
2019-03-03T14:37:10.906Z,49.01
2019-03-03T14:42:14.214Z,49.94
2019-03-03T14:47:17.539Z,49.35
2019-03-03T14:52:20.845Z,48.75
2019-03-03T14:57:24.244Z,50.11
2019-03-03T15:02:27.531Z,49.23
2019-03-03T15:07:30.846Z,49.61
2019-03-03T15:12:34.127Z,49.46
2019-03-03T15:17:37.575Z,49.79
2019-03-03T15:22:41.289Z,49.80
2019-03-03T15:27:44.630Z,49.25
2019-03-03T15:32:47.892Z,49.52
2019-03-03T15:37:51.214Z,49.76
2019-03-03T15:42:54.488Z,50.31
2019-03-03T15:47:57.837Z,50.92
2019-03-03T15:53:01.615Z,49.57
2019-03-03T15:58:04.896Z,49.67
2019-03-03T16:03:08.184Z,50.30
2019-03-03T16:08:11.469Z,50.10
2019-03-03T16:13:14.742Z,49.51
2019-03-03T16:18:18.013Z,50.26
2019-03-03T16:23:22.325Z,50.21
2019-03-03T16:28:25.615Z,49.47
2019-03-03T16:33:28.929Z,50.01
2019-03-03T16:38:32.235Z,50.46
2019-03-03T16:43:35.538Z,50.00
2019-03-03T16:48:39.029Z,50.84
2019-03-03T16:53:42.393Z,50.76
2019-03-03T16:58:45.665Z,50.40
2019-03-03T17:03:48.957Z,51.05
2019-03-03T17:08:52.910Z,50.95
2019-03-03T17:13:56.241Z,51.46
2019-03-03T17:18:59.530Z,51.35
2019-03-03T17:24:02.932Z,51.96
2019-03-03T17:29:06.233Z,52.43
2019-03-03T17:34:13.089Z,52.66
2019-03-03T17:39:12.931Z,53.07
2019-03-03T17:44:16.301Z,53.29
2019-03-03T17:49:19.618Z,53.45
2019-03-03T17:54:22.986Z,53.49
2019-03-03T17:59:26.318Z,53.09
2019-03-03T18:04:29.919Z,53.48
2019-03-03T18:09:33.242Z,53.91
2019-03-03T18:14:37.505Z,53.39
2019-03-03T18:19:40.935Z,53.72
2019-03-03T18:24:44.302Z,53.41
2019-03-03T18:29:47.694Z,53.80
2019-03-03T18:34:51.333Z,54.60
2019-03-03T18:39:54.695Z,55.55
2019-03-03T18:44:58.015Z,56.22
2019-03-03T18:50:01.457Z,56.21
2019-03-03T18:55:06.143Z,56.53
2019-03-03T19:00:12.138Z,56.59
2019-03-03T19:05:17.615Z,56.68
2019-03-03T19:10:19.327Z,56.89
2019-03-03T19:15:22.672Z,56.88
2019-03-03T19:20:25.964Z,56.96
2019-03-03T19:25:29.289Z,57.86
2019-03-03T19:30:32.589Z,58.66
2019-03-03T19:35:35.894Z,58.49
2019-03-03T19:40:39.276Z,59.02
2019-03-03T19:45:43.938Z,58.59
2019-03-03T19:50:48.599Z,58.08
2019-03-03T19:55:52.347Z,58.35
2019-03-03T20:00:55.791Z,58.83
2019-03-03T20:05:59.220Z,59.82
2019-03-03T20:11:03.009Z,59.83
2019-03-03T20:16:06.506Z,60.18
2019-03-03T20:21:09.969Z,60.23
2019-03-03T20:26:14.327Z,60.24
2019-03-03T20:31:18.151Z,61.49
2019-03-03T20:36:21.623Z,61.19
2019-03-03T20:41:25.128Z,61.60
2019-03-03T20:46:28.679Z,61.77
2019-03-03T20:51:33.015Z,61.95
2019-03-03T20:56:36.481Z,62.16
2019-03-03T21:01:39.997Z,62.05
2019-03-03T21:06:43.673Z,61.62
2019-03-03T21:11:47.390Z,62.00
2019-03-03T21:16:50.657Z,61.95
2019-03-03T21:21:54.036Z,61.69
2019-03-03T21:26:58.034Z,63.17
2019-03-03T21:32:01.453Z,63.77
2019-03-03T21:37:04.894Z,63.41
2019-03-03T21:42:08.224Z,63.08
2019-03-03T21:47:11.738Z,63.78
2019-03-03T21:52:15.161Z,63.46
2019-03-03T21:57:18.879Z,63.52
2019-03-03T22:02:22.916Z,64.03
2019-03-03T22:07:26.578Z,63.40
2019-03-03T22:12:30.725Z,64.31
2019-03-03T22:17:33.976Z,63.95
2019-03-03T22:22:37.206Z,64.72
2019-03-03T22:27:40.999Z,64.64
2019-03-03T22:32:44.589Z,64.62
2019-03-03T22:37:48.278Z,63.86
2019-03-03T22:42:51.938Z,63.84
2019-03-03T22:47:55.384Z,64.47
2019-03-03T22:52:59.060Z,63.96
2019-03-03T22:58:04.033Z,64.51
2019-03-03T23:03:07.755Z,65.36
2019-03-03T23:08:18.673Z,65.02
2019-03-03T23:14:31.445Z,64.84
2019-03-03T23:19:55.495Z,65.10
2019-03-03T23:25:08.683Z,65.14
2019-03-03T23:30:12.013Z,65.68
2019-03-03T23:35:15.263Z,65.64
2019-03-03T23:40:18.537Z,65.42
2019-03-03T23:45:21.816Z,65.74
2019-03-03T23:50:25.088Z,66.39
2019-03-03T23:55:28.341Z,65.13
